sensor_id;sensor_type;location;lat;lon;timestamp;P1;durP1;ratioP1;P2;durP2;ratioP2
8040;SDS011;4063;48.140;10.250;2023-11-21T00:02:09;4.13;;;1.77;;
8040;SDS011;4063;48.140;10.250;2023-11-21T00:04:35;6.57;;;2.33;;
8040;SDS011;4063;48.140;10.250;2023-11-21T00:07:02;3.30;;;1.80;;
8040;SDS011;4063;48.140;10.250;2023-11-21T00:09:28;4.77;;;1.87;;
8040;SDS011;4063;48.140;10.250;2023-11-21T00:11:54;3.40;;;1.87;;
8040;SDS011;4063;48.140;10.250;2023-11-21T00:14:20;10.10;;;2.40;;
8040;SDS011;4063;48.140;10.250;2023-11-21T00:16:46;5.50;;;1.87;;
8040;SDS011;4063;48.140;10.250;2023-11-21T00:19:12;5.10;;;1.83;;
8040;SDS011;4063;48.140;10.250;2023-11-21T00:21:38;7.60;;;1.90;;
8040;SDS011;4063;48.140;10.250;2023-11-21T00:24:04;8.73;;;2.30;;
8040;SDS011;4063;48.140;10.250;2023-11-21T00:26:30;8.00;;;2.33;;
8040;SDS011;4063;48.140;10.250;2023-11-21T00:29:01;4.80;;;1.87;;
8040;SDS011;4063;48.140;10.250;2023-11-21T00:31:27;5.50;;;1.87;;
8040;SDS011;4063;48.140;10.250;2023-11-21T00:33:53;7.07;;;2.37;;
8040;SDS011;4063;48.140;10.250;2023-11-21T00:36:20;10.17;;;1.73;;
8040;SDS011;4063;48.140;10.250;2023-11-21T00:38:46;9.77;;;2.00;;
8040;SDS011;4063;48.140;10.250;2023-11-21T00:41:13;4.80;;;2.13;;
8040;SDS011;4063;48.140;10.250;2023-11-21T00:43:39;6.83;;;2.00;;
8040;SDS011;4063;48.140;10.250;2023-11-21T00:46:05;5.37;;;1.73;;
8040;SDS011;4063;48.140;10.250;2023-11-21T00:48:34;5.77;;;1.47;;
8040;SDS011;4063;48.140;10.250;2023-11-21T00:51:00;4.60;;;1.70;;
8040;SDS011;4063;48.140;10.250;2023-11-21T00:53:26;10.00;;;1.87;;
8040;SDS011;4063;48.140;10.250;2023-11-21T00:55:52;5.80;;;1.93;;
8040;SDS011;4063;48.140;10.250;2023-11-21T00:58:22;6.93;;;1.63;;
8040;SDS011;4063;48.140;10.250;2023-11-21T01:00:48;3.90;;;1.60;;
8040;SDS011;4063;48.140;10.250;2023-11-21T01:03:14;3.67;;;1.60;;
8040;SDS011;4063;48.140;10.250;2023-11-21T01:05:40;5.47;;;1.53;;
8040;SDS011;4063;48.140;10.250;2023-11-21T01:08:06;3.63;;;1.60;;
8040;SDS011;4063;48.140;10.250;2023-11-21T01:10:32;5.87;;;1.87;;
8040;SDS011;4063;48.140;10.250;2023-11-21T01:12:59;5.33;;;1.77;;
8040;SDS011;4063;48.140;10.250;2023-11-21T01:15:25;3.57;;;1.70;;
8040;SDS011;4063;48.140;10.250;2023-11-21T01:17:51;8.33;;;1.90;;
8040;SDS011;4063;48.140;10.250;2023-11-21T01:20:18;6.47;;;1.73;;
8040;SDS011;4063;48.140;10.250;2023-11-21T01:22:44;4.10;;;1.60;;
8040;SDS011;4063;48.140;10.250;2023-11-21T01:25:10;4.57;;;1.90;;
8040;SDS011;4063;48.140;10.250;2023-11-21T01:27:36;2.27;;;1.63;;
8040;SDS011;4063;48.140;10.250;2023-11-21T01:30:02;6.77;;;1.60;;
8040;SDS011;4063;48.140;10.250;2023-11-21T01:32:28;6.63;;;1.90;;
8040;SDS011;4063;48.140;10.250;2023-11-21T01:34:54;5.73;;;2.00;;
8040;SDS011;4063;48.140;10.250;2023-11-21T01:37:20;5.40;;;1.80;;
8040;SDS011;4063;48.140;10.250;2023-11-21T01:39:47;4.03;;;1.33;;
8040;SDS011;4063;48.140;10.250;2023-11-21T01:42:13;5.83;;;1.90;;
8040;SDS011;4063;48.140;10.250;2023-11-21T01:44:39;5.50;;;1.90;;
8040;SDS011;4063;48.140;10.250;2023-11-21T01:47:05;8.33;;;2.03;;
8040;SDS011;4063;48.140;10.250;2023-11-21T01:49:35;9.53;;;2.17;;
8040;SDS011;4063;48.140;10.250;2023-11-21T01:52:01;5.53;;;1.97;;
8040;SDS011;4063;48.140;10.250;2023-11-21T01:54:29;6.03;;;1.80;;
8040;SDS011;4063;48.140;10.250;2023-11-21T01:56:57;6.97;;;1.80;;
8040;SDS011;4063;48.140;10.250;2023-11-21T01:59:27;4.03;;;2.00;;
8040;SDS011;4063;48.140;10.250;2023-11-21T02:01:56;7.50;;;2.30;;
8040;SDS011;4063;48.140;10.250;2023-11-21T02:04:22;7.67;;;2.03;;
8040;SDS011;4063;48.140;10.250;2023-11-21T02:06:48;5.83;;;1.53;;
8040;SDS011;4063;48.140;10.250;2023-11-21T02:09:15;4.63;;;2.27;;
8040;SDS011;4063;48.140;10.250;2023-11-21T02:11:42;11.37;;;2.43;;
8040;SDS011;4063;48.140;10.250;2023-11-21T02:14:09;7.67;;;2.03;;
8040;SDS011;4063;48.140;10.250;2023-11-21T02:16:35;8.57;;;1.63;;
8040;SDS011;4063;48.140;10.250;2023-11-21T02:19:03;2.33;;;1.43;;
8040;SDS011;4063;48.140;10.250;2023-11-21T02:21:34;6.13;;;2.00;;
8040;SDS011;4063;48.140;10.250;2023-11-21T02:24:01;3.90;;;2.03;;
8040;SDS011;4063;48.140;10.250;2023-11-21T02:26:27;5.67;;;1.80;;
8040;SDS011;4063;48.140;10.250;2023-11-21T02:28:53;8.97;;;1.70;;
8040;SDS011;4063;48.140;10.250;2023-11-21T02:31:19;4.40;;;1.67;;
8040;SDS011;4063;48.140;10.250;2023-11-21T02:33:45;3.70;;;1.63;;
8040;SDS011;4063;48.140;10.250;2023-11-21T02:36:11;0.20;;;0.20;;
8040;SDS011;4063;48.140;10.250;2023-11-21T02:38:37;0.20;;;0.20;;
8040;SDS011;4063;48.140;10.250;2023-11-21T02:41:02;0.30;;;0.30;;
8040;SDS011;4063;48.140;10.250;2023-11-21T02:43:29;0.20;;;0.20;;
8040;SDS011;4063;48.140;10.250;2023-11-21T02:45:55;0.20;;;0.20;;
8040;SDS011;4063;48.140;10.250;2023-11-21T02:48:21;0.20;;;0.20;;
8040;SDS011;4063;48.140;10.250;2023-11-21T02:50:50;0.23;;;0.23;;
8040;SDS011;4063;48.140;10.250;2023-11-21T02:53:18;0.40;;;0.40;;
8040;SDS011;4063;48.140;10.250;2023-11-21T02:55:44;0.20;;;0.20;;
8040;SDS011;4063;48.140;10.250;2023-11-21T02:58:10;0.20;;;0.20;;
8040;SDS011;4063;48.140;10.250;2023-11-21T03:00:36;0.20;;;0.20;;
8040;SDS011;4063;48.140;10.250;2023-11-21T03:03:02;0.30;;;0.30;;
8040;SDS011;4063;48.140;10.250;2023-11-21T03:05:28;0.23;;;0.23;;
8040;SDS011;4063;48.140;10.250;2023-11-21T03:07:54;0.20;;;0.20;;
8040;SDS011;4063;48.140;10.250;2023-11-21T03:10:20;0.30;;;0.30;;
8040;SDS011;4063;48.140;10.250;2023-11-21T03:12:46;0.20;;;0.20;;
8040;SDS011;4063;48.140;10.250;2023-11-21T03:15:12;0.20;;;0.20;;
8040;SDS011;4063;48.140;10.250;2023-11-21T03:17:38;0.20;;;0.20;;
8040;SDS011;4063;48.140;10.250;2023-11-21T03:20:04;0.30;;;0.30;;
8040;SDS011;4063;48.140;10.250;2023-11-21T03:22:30;0.20;;;0.20;;
8040;SDS011;4063;48.140;10.250;2023-11-21T03:24:56;0.30;;;0.30;;
8040;SDS011;4063;48.140;10.250;2023-11-21T03:27:23;0.30;;;0.30;;
8040;SDS011;4063;48.140;10.250;2023-11-21T03:29:49;0.30;;;0.30;;
8040;SDS011;4063;48.140;10.250;2023-11-21T03:32:15;0.30;;;0.30;;
8040;SDS011;4063;48.140;10.250;2023-11-21T03:34:54;0.20;;;0.20;;
8040;SDS011;4063;48.140;10.250;2023-11-21T03:37:21;0.20;;;0.20;;
8040;SDS011;4063;48.140;10.250;2023-11-21T03:39:47;0.20;;;0.20;;
8040;SDS011;4063;48.140;10.250;2023-11-21T03:42:13;0.20;;;0.20;;
8040;SDS011;4063;48.140;10.250;2023-11-21T03:44:39;0.30;;;0.30;;
8040;SDS011;4063;48.140;10.250;2023-11-21T03:47:05;0.20;;;0.20;;
8040;SDS011;4063;48.140;10.250;2023-11-21T03:49:31;0.20;;;0.20;;
8040;SDS011;4063;48.140;10.250;2023-11-21T03:51:57;0.20;;;0.20;;
8040;SDS011;4063;48.140;10.250;2023-11-21T03:54:23;0.20;;;0.20;;
8040;SDS011;4063;48.140;10.250;2023-11-21T03:56:49;0.10;;;0.10;;
8040;SDS011;4063;48.140;10.250;2023-11-21T03:59:15;0.20;;;0.20;;
8040;SDS011;4063;48.140;10.250;2023-11-21T04:01:41;0.20;;;0.20;;
8040;SDS011;4063;48.140;10.250;2023-11-21T04:04:07;0.20;;;0.20;;
8040;SDS011;4063;48.140;10.250;2023-11-21T04:06:33;0.30;;;0.30;;
8040;SDS011;4063;48.140;10.250;2023-11-21T04:08:58;0.20;;;0.20;;
8040;SDS011;4063;48.140;10.250;2023-11-21T04:11:24;0.47;;;0.47;;
8040;SDS011;4063;48.140;10.250;2023-11-21T04:13:50;0.20;;;0.20;;
8040;SDS011;4063;48.140;10.250;2023-11-21T04:16:16;0.20;;;0.20;;
8040;SDS011;4063;48.140;10.250;2023-11-21T04:18:43;0.30;;;0.30;;
8040;SDS011;4063;48.140;10.250;2023-11-21T04:21:09;0.20;;;0.20;;
8040;SDS011;4063;48.140;10.250;2023-11-21T04:23:35;0.30;;;0.30;;
8040;SDS011;4063;48.140;10.250;2023-11-21T04:26:01;0.20;;;0.20;;
8040;SDS011;4063;48.140;10.250;2023-11-21T04:28:27;0.20;;;0.20;;
8040;SDS011;4063;48.140;10.250;2023-11-21T04:30:54;0.20;;;0.20;;
8040;SDS011;4063;48.140;10.250;2023-11-21T04:33:20;0.20;;;0.20;;
8040;SDS011;4063;48.140;10.250;2023-11-21T04:35:47;0.20;;;0.20;;
8040;SDS011;4063;48.140;10.250;2023-11-21T04:38:13;0.20;;;0.20;;
8040;SDS011;4063;48.140;10.250;2023-11-21T04:40:39;0.23;;;0.23;;
8040;SDS011;4063;48.140;10.250;2023-11-21T04:43:05;0.30;;;0.30;;
8040;SDS011;4063;48.140;10.250;2023-11-21T04:45:32;0.20;;;0.20;;
8040;SDS011;4063;48.140;10.250;2023-11-21T04:47:58;0.20;;;0.20;;
8040;SDS011;4063;48.140;10.250;2023-11-21T04:50:24;0.20;;;0.20;;
8040;SDS011;4063;48.140;10.250;2023-11-21T04:52:52;0.30;;;0.30;;
8040;SDS011;4063;48.140;10.250;2023-11-21T04:55:18;0.23;;;0.23;;
8040;SDS011;4063;48.140;10.250;2023-11-21T04:57:44;0.20;;;0.20;;
8040;SDS011;4063;48.140;10.250;2023-11-21T05:00:12;0.20;;;0.20;;
8040;SDS011;4063;48.140;10.250;2023-11-21T05:02:38;0.20;;;0.20;;
8040;SDS011;4063;48.140;10.250;2023-11-21T05:05:04;0.20;;;0.20;;
8040;SDS011;4063;48.140;10.250;2023-11-21T05:07:31;0.20;;;0.20;;
8040;SDS011;4063;48.140;10.250;2023-11-21T05:09:57;0.20;;;0.20;;
8040;SDS011;4063;48.140;10.250;2023-11-21T05:12:23;0.20;;;0.20;;
8040;SDS011;4063;48.140;10.250;2023-11-21T05:14:50;0.20;;;0.20;;
8040;SDS011;4063;48.140;10.250;2023-11-21T05:17:16;0.20;;;0.20;;
8040;SDS011;4063;48.140;10.250;2023-11-21T05:19:42;0.20;;;0.20;;
8040;SDS011;4063;48.140;10.250;2023-11-21T05:22:11;0.20;;;0.20;;
8040;SDS011;4063;48.140;10.250;2023-11-21T05:24:37;0.30;;;0.30;;
8040;SDS011;4063;48.140;10.250;2023-11-21T05:27:06;0.20;;;0.20;;
8040;SDS011;4063;48.140;10.250;2023-11-21T05:29:34;0.20;;;0.20;;
8040;SDS011;4063;48.140;10.250;2023-11-21T05:32:00;0.30;;;0.30;;
8040;SDS011;4063;48.140;10.250;2023-11-21T05:34:26;0.20;;;0.20;;
8040;SDS011;4063;48.140;10.250;2023-11-21T05:36:52;0.30;;;0.30;;
8040;SDS011;4063;48.140;10.250;2023-11-21T05:39:18;0.30;;;0.30;;
8040;SDS011;4063;48.140;10.250;2023-11-21T05:41:45;0.20;;;0.20;;
8040;SDS011;4063;48.140;10.250;2023-11-21T05:44:11;0.20;;;0.20;;
8040;SDS011;4063;48.140;10.250;2023-11-21T05:46:39;0.20;;;0.20;;
8040;SDS011;4063;48.140;10.250;2023-11-21T05:49:05;0.20;;;0.20;;
8040;SDS011;4063;48.140;10.250;2023-11-21T05:51:33;0.20;;;0.20;;
8040;SDS011;4063;48.140;10.250;2023-11-21T05:53:59;0.20;;;0.20;;
8040;SDS011;4063;48.140;10.250;2023-11-21T05:56:25;0.30;;;0.30;;
8040;SDS011;4063;48.140;10.250;2023-11-21T05:58:50;0.13;;;0.13;;
8040;SDS011;4063;48.140;10.250;2023-11-21T06:01:17;0.30;;;0.30;;
8040;SDS011;4063;48.140;10.250;2023-11-21T06:03:43;0.20;;;0.20;;
8040;SDS011;4063;48.140;10.250;2023-11-21T06:06:10;0.30;;;0.30;;
8040;SDS011;4063;48.140;10.250;2023-11-21T06:08:36;0.20;;;0.20;;
8040;SDS011;4063;48.140;10.250;2023-11-21T06:11:02;0.20;;;0.20;;
8040;SDS011;4063;48.140;10.250;2023-11-21T06:13:28;0.20;;;0.20;;
8040;SDS011;4063;48.140;10.250;2023-11-21T06:15:55;0.20;;;0.20;;
8040;SDS011;4063;48.140;10.250;2023-11-21T06:18:21;0.30;;;0.30;;
8040;SDS011;4063;48.140;10.250;2023-11-21T06:20:47;0.20;;;0.20;;
8040;SDS011;4063;48.140;10.250;2023-11-21T06:23:13;0.30;;;0.30;;
8040;SDS011;4063;48.140;10.250;2023-11-21T06:25:39;0.20;;;0.20;;
8040;SDS011;4063;48.140;10.250;2023-11-21T06:28:05;0.23;;;0.23;;
8040;SDS011;4063;48.140;10.250;2023-11-21T06:30:31;0.20;;;0.20;;
8040;SDS011;4063;48.140;10.250;2023-11-21T06:32:57;0.20;;;0.20;;
8040;SDS011;4063;48.140;10.250;2023-11-21T06:35:24;0.20;;;0.20;;
8040;SDS011;4063;48.140;10.250;2023-11-21T06:37:52;0.30;;;0.30;;
8040;SDS011;4063;48.140;10.250;2023-11-21T06:40:18;0.20;;;0.20;;
8040;SDS011;4063;48.140;10.250;2023-11-21T06:42:44;0.20;;;0.20;;
8040;SDS011;4063;48.140;10.250;2023-11-21T06:45:11;0.20;;;0.20;;
8040;SDS011;4063;48.140;10.250;2023-11-21T06:47:38;0.20;;;0.20;;
8040;SDS011;4063;48.140;10.250;2023-11-21T06:50:04;0.30;;;0.30;;
8040;SDS011;4063;48.140;10.250;2023-11-21T06:52:32;0.20;;;0.20;;
8040;SDS011;4063;48.140;10.250;2023-11-21T06:54:58;0.20;;;0.20;;
8040;SDS011;4063;48.140;10.250;2023-11-21T06:57:24;0.20;;;0.20;;
8040;SDS011;4063;48.140;10.250;2023-11-21T06:59:50;0.20;;;0.20;;
8040;SDS011;4063;48.140;10.250;2023-11-21T07:02:16;0.50;;;0.50;;
8040;SDS011;4063;48.140;10.250;2023-11-21T07:04:47;0.30;;;0.30;;
8040;SDS011;4063;48.140;10.250;2023-11-21T07:07:12;0.30;;;0.30;;
8040;SDS011;4063;48.140;10.250;2023-11-21T07:09:38;0.30;;;0.30;;
8040;SDS011;4063;48.140;10.250;2023-11-21T07:12:04;0.20;;;0.20;;
8040;SDS011;4063;48.140;10.250;2023-11-21T07:14:32;0.23;;;0.23;;
8040;SDS011;4063;48.140;10.250;2023-11-21T07:16:58;0.20;;;0.20;;
8040;SDS011;4063;48.140;10.250;2023-11-21T07:19:24;0.20;;;0.20;;
8040;SDS011;4063;48.140;10.250;2023-11-21T07:21:50;0.20;;;0.20;;
8040;SDS011;4063;48.140;10.250;2023-11-21T07:24:16;0.30;;;0.30;;
8040;SDS011;4063;48.140;10.250;2023-11-21T07:26:42;0.20;;;0.20;;
8040;SDS011;4063;48.140;10.250;2023-11-21T07:29:08;0.30;;;0.30;;
8040;SDS011;4063;48.140;10.250;2023-11-21T07:31:36;0.20;;;0.20;;
8040;SDS011;4063;48.140;10.250;2023-11-21T07:34:03;0.30;;;0.30;;
8040;SDS011;4063;48.140;10.250;2023-11-21T07:36:29;0.20;;;0.20;;
8040;SDS011;4063;48.140;10.250;2023-11-21T07:38:55;0.20;;;0.20;;
8040;SDS011;4063;48.140;10.250;2023-11-21T07:41:21;0.20;;;0.20;;
8040;SDS011;4063;48.140;10.250;2023-11-21T07:43:47;0.20;;;0.20;;
8040;SDS011;4063;48.140;10.250;2023-11-21T07:46:13;0.20;;;0.20;;
8040;SDS011;4063;48.140;10.250;2023-11-21T07:48:39;0.20;;;0.20;;
8040;SDS011;4063;48.140;10.250;2023-11-21T07:51:07;0.30;;;0.30;;
8040;SDS011;4063;48.140;10.250;2023-11-21T07:53:33;0.20;;;0.20;;
8040;SDS011;4063;48.140;10.250;2023-11-21T07:56:04;0.20;;;0.20;;
8040;SDS011;4063;48.140;10.250;2023-11-21T07:58:31;0.20;;;0.20;;
8040;SDS011;4063;48.140;10.250;2023-11-21T08:00:58;0.20;;;0.20;;
8040;SDS011;4063;48.140;10.250;2023-11-21T08:03:24;0.20;;;0.20;;
8040;SDS011;4063;48.140;10.250;2023-11-21T08:05:51;0.20;;;0.20;;
8040;SDS011;4063;48.140;10.250;2023-11-21T08:08:17;0.30;;;0.30;;
8040;SDS011;4063;48.140;10.250;2023-11-21T08:10:44;0.30;;;0.30;;
8040;SDS011;4063;48.140;10.250;2023-11-21T08:13:13;0.20;;;0.20;;
8040;SDS011;4063;48.140;10.250;2023-11-21T08:15:42;0.20;;;0.20;;
8040;SDS011;4063;48.140;10.250;2023-11-21T08:18:11;0.30;;;0.30;;
8040;SDS011;4063;48.140;10.250;2023-11-21T08:20:39;0.20;;;0.20;;
8040;SDS011;4063;48.140;10.250;2023-11-21T08:23:05;0.20;;;0.20;;
8040;SDS011;4063;48.140;10.250;2023-11-21T08:25:32;0.20;;;0.20;;
8040;SDS011;4063;48.140;10.250;2023-11-21T08:27:59;0.27;;;0.27;;
8040;SDS011;4063;48.140;10.250;2023-11-21T08:30:25;0.20;;;0.20;;
8040;SDS011;4063;48.140;10.250;2023-11-21T08:32:54;0.20;;;0.20;;
8040;SDS011;4063;48.140;10.250;2023-11-21T08:35:23;0.20;;;0.20;;
8040;SDS011;4063;48.140;10.250;2023-11-21T08:37:50;0.30;;;0.30;;
8040;SDS011;4063;48.140;10.250;2023-11-21T08:40:17;0.20;;;0.20;;
8040;SDS011;4063;48.140;10.250;2023-11-21T08:42:44;0.30;;;0.30;;
8040;SDS011;4063;48.140;10.250;2023-11-21T08:45:10;0.20;;;0.20;;
8040;SDS011;4063;48.140;10.250;2023-11-21T08:47:38;0.20;;;0.20;;
8040;SDS011;4063;48.140;10.250;2023-11-21T08:50:08;0.30;;;0.30;;
8040;SDS011;4063;48.140;10.250;2023-11-21T08:52:34;0.23;;;0.23;;
8040;SDS011;4063;48.140;10.250;2023-11-21T08:55:02;0.20;;;0.20;;
8040;SDS011;4063;48.140;10.250;2023-11-21T08:57:32;0.20;;;0.20;;
8040;SDS011;4063;48.140;10.250;2023-11-21T08:59:58;0.20;;;0.20;;
8040;SDS011;4063;48.140;10.250;2023-11-21T09:02:27;0.20;;;0.20;;
8040;SDS011;4063;48.140;10.250;2023-11-21T09:04:53;0.20;;;0.20;;
8040;SDS011;4063;48.140;10.250;2023-11-21T09:07:19;0.20;;;0.20;;
8040;SDS011;4063;48.140;10.250;2023-11-21T09:09:46;0.20;;;0.20;;
8040;SDS011;4063;48.140;10.250;2023-11-21T09:12:12;0.20;;;0.20;;
8040;SDS011;4063;48.140;10.250;2023-11-21T09:14:38;0.20;;;0.20;;
8040;SDS011;4063;48.140;10.250;2023-11-21T09:17:05;0.20;;;0.20;;
8040;SDS011;4063;48.140;10.250;2023-11-21T09:19:36;0.20;;;0.20;;
8040;SDS011;4063;48.140;10.250;2023-11-21T09:22:02;0.30;;;0.30;;
8040;SDS011;4063;48.140;10.250;2023-11-21T09:24:30;0.20;;;0.20;;
8040;SDS011;4063;48.140;10.250;2023-11-21T09:26:56;0.20;;;0.20;;
8040;SDS011;4063;48.140;10.250;2023-11-21T09:29:21;0.20;;;0.20;;
8040;SDS011;4063;48.140;10.250;2023-11-21T09:31:47;0.30;;;0.30;;
8040;SDS011;4063;48.140;10.250;2023-11-21T09:34:16;0.20;;;0.20;;
8040;SDS011;4063;48.140;10.250;2023-11-21T09:36:44;0.10;;;0.10;;
8040;SDS011;4063;48.140;10.250;2023-11-21T09:39:10;0.20;;;0.20;;
8040;SDS011;4063;48.140;10.250;2023-11-21T09:41:41;0.10;;;0.10;;
8040;SDS011;4063;48.140;10.250;2023-11-21T09:44:09;0.20;;;0.20;;
8040;SDS011;4063;48.140;10.250;2023-11-21T09:46:40;0.20;;;0.20;;
8040;SDS011;4063;48.140;10.250;2023-11-21T09:49:09;0.20;;;0.20;;
8040;SDS011;4063;48.140;10.250;2023-11-21T09:51:42;0.20;;;0.20;;
8040;SDS011;4063;48.140;10.250;2023-11-21T09:54:08;0.20;;;0.20;;
8040;SDS011;4063;48.140;10.250;2023-11-21T09:56:37;0.20;;;0.20;;
8040;SDS011;4063;48.140;10.250;2023-11-21T09:59:03;0.20;;;0.20;;
8040;SDS011;4063;48.140;10.250;2023-11-21T10:01:32;0.20;;;0.20;;
8040;SDS011;4063;48.140;10.250;2023-11-21T10:03:58;0.20;;;0.20;;
8040;SDS011;4063;48.140;10.250;2023-11-21T10:06:25;4.20;;;1.90;;
8040;SDS011;4063;48.140;10.250;2023-11-21T10:08:52;4.30;;;2.10;;
8040;SDS011;4063;48.140;10.250;2023-11-21T10:11:22;6.97;;;2.30;;
8040;SDS011;4063;48.140;10.250;2023-11-21T10:13:50;3.10;;;2.03;;
8040;SDS011;4063;48.140;10.250;2023-11-21T10:16:19;5.13;;;2.57;;
8040;SDS011;4063;48.140;10.250;2023-11-21T10:18:51;5.00;;;2.57;;
8040;SDS011;4063;48.140;10.250;2023-11-21T10:21:18;3.17;;;1.60;;
8040;SDS011;4063;48.140;10.250;2023-11-21T10:23:44;25.63;;;8.40;;
8040;SDS011;4063;48.140;10.250;2023-11-21T10:26:11;6.60;;;2.50;;
8040;SDS011;4063;48.140;10.250;2023-11-21T10:28:54;4.90;;;2.47;;
8040;SDS011;4063;48.140;10.250;2023-11-21T10:31:21;8.33;;;3.37;;
8040;SDS011;4063;48.140;10.250;2023-11-21T10:33:49;3.37;;;1.90;;
8040;SDS011;4063;48.140;10.250;2023-11-21T10:36:24;2.87;;;1.80;;
8040;SDS011;4063;48.140;10.250;2023-11-21T10:38:51;3.23;;;1.70;;
8040;SDS011;4063;48.140;10.250;2023-11-21T10:41:18;2.63;;;1.53;;
8040;SDS011;4063;48.140;10.250;2023-11-21T10:43:45;13.07;;;5.33;;
8040;SDS011;4063;48.140;10.250;2023-11-21T10:46:10;7.43;;;2.07;;
8040;SDS011;4063;48.140;10.250;2023-11-21T10:48:36;2.23;;;1.80;;
8040;SDS011;4063;48.140;10.250;2023-11-21T10:51:06;1.90;;;1.40;;
8040;SDS011;4063;48.140;10.250;2023-11-21T10:53:32;2.97;;;1.40;;
8040;SDS011;4063;48.140;10.250;2023-11-21T10:56:02;6.97;;;4.03;;
8040;SDS011;4063;48.140;10.250;2023-11-21T10:58:31;3.63;;;2.53;;
8040;SDS011;4063;48.140;10.250;2023-11-21T11:00:57;1.63;;;1.40;;
8040;SDS011;4063;48.140;10.250;2023-11-21T11:03:24;3.50;;;1.70;;
8040;SDS011;4063;48.140;10.250;2023-11-21T11:05:51;8.07;;;1.70;;
8040;SDS011;4063;48.140;10.250;2023-11-21T11:08:20;1.30;;;1.20;;
8040;SDS011;4063;48.140;10.250;2023-11-21T11:10:51;3.67;;;1.70;;
8040;SDS011;4063;48.140;10.250;2023-11-21T11:13:17;6.47;;;1.53;;
8040;SDS011;4063;48.140;10.250;2023-11-21T11:15:47;6.00;;;2.40;;
8040;SDS011;4063;48.140;10.250;2023-11-21T11:18:13;7.60;;;3.83;;
8040;SDS011;4063;48.140;10.250;2023-11-21T11:20:39;3.03;;;2.33;;
8040;SDS011;4063;48.140;10.250;2023-11-21T11:23:27;6.83;;;2.97;;
8040;SDS011;4063;48.140;10.250;2023-11-21T11:26:44;3.63;;;1.80;;
8040;SDS011;4063;48.140;10.250;2023-11-21T11:28:56;2.63;;;1.80;;
8040;SDS011;4063;48.140;10.250;2023-11-21T11:33:57;6.83;;;3.63;;
8040;SDS011;4063;48.140;10.250;2023-11-21T11:36:40;3.33;;;2.20;;
8040;SDS011;4063;48.140;10.250;2023-11-21T11:41:55;7.03;;;3.63;;
8040;SDS011;4063;48.140;10.250;2023-11-21T11:47:16;2.77;;;1.70;;
8040;SDS011;4063;48.140;10.250;2023-11-21T11:52:45;4.73;;;2.07;;
8040;SDS011;4063;48.140;10.250;2023-11-21T11:55:12;3.10;;;1.40;;
8040;SDS011;4063;48.140;10.250;2023-11-21T11:57:39;4.10;;;1.30;;
8040;SDS011;4063;48.140;10.250;2023-11-21T12:00:18;1.53;;;1.30;;
8040;SDS011;4063;48.140;10.250;2023-11-21T12:02:46;2.10;;;1.60;;
8040;SDS011;4063;48.140;10.250;2023-11-21T12:05:13;3.00;;;1.33;;
8040;SDS011;4063;48.140;10.250;2023-11-21T12:07:50;5.80;;;1.77;;
8040;SDS011;4063;48.140;10.250;2023-11-21T12:10:20;3.83;;;1.40;;
8040;SDS011;4063;48.140;10.250;2023-11-21T12:12:49;2.70;;;1.57;;
8040;SDS011;4063;48.140;10.250;2023-11-21T12:15:15;5.30;;;2.07;;
8040;SDS011;4063;48.140;10.250;2023-11-21T12:17:42;3.97;;;1.60;;
8040;SDS011;4063;48.140;10.250;2023-11-21T12:20:09;8.33;;;1.70;;
8040;SDS011;4063;48.140;10.250;2023-11-21T12:25:13;1.63;;;1.20;;
8040;SDS011;4063;48.140;10.250;2023-11-21T12:27:41;5.23;;;2.20;;
8040;SDS011;4063;48.140;10.250;2023-11-21T12:30:07;8.33;;;3.90;;
8040;SDS011;4063;48.140;10.250;2023-11-21T12:32:38;14.17;;;4.93;;
8040;SDS011;4063;48.140;10.250;2023-11-21T12:35:05;5.10;;;2.87;;
8040;SDS011;4063;48.140;10.250;2023-11-21T12:37:31;10.33;;;3.90;;
8040;SDS011;4063;48.140;10.250;2023-11-21T12:39:57;4.47;;;1.87;;
8040;SDS011;4063;48.140;10.250;2023-11-21T12:42:24;6.27;;;2.93;;
8040;SDS011;4063;48.140;10.250;2023-11-21T12:47:46;1.90;;;1.63;;
8040;SDS011;4063;48.140;10.250;2023-11-21T12:50:18;1.53;;;1.43;;
8040;SDS011;4063;48.140;10.250;2023-11-21T12:52:48;1.73;;;1.60;;
8040;SDS011;4063;48.140;10.250;2023-11-21T12:55:18;3.63;;;1.93;;
8040;SDS011;4063;48.140;10.250;2023-11-21T12:57:47;1.77;;;1.50;;
8040;SDS011;4063;48.140;10.250;2023-11-21T13:00:16;2.10;;;1.33;;
8040;SDS011;4063;48.140;10.250;2023-11-21T13:02:52;2.13;;;1.40;;
8040;SDS011;4063;48.140;10.250;2023-11-21T13:07:51;3.97;;;2.50;;
8040;SDS011;4063;48.140;10.250;2023-11-21T13:10:19;5.17;;;2.70;;
8040;SDS011;4063;48.140;10.250;2023-11-21T13:12:50;7.33;;;4.07;;
8040;SDS011;4063;48.140;10.250;2023-11-21T13:15:17;4.87;;;3.10;;
8040;SDS011;4063;48.140;10.250;2023-11-21T13:17:43;7.00;;;2.97;;
8040;SDS011;4063;48.140;10.250;2023-11-21T13:20:13;4.97;;;2.47;;
8040;SDS011;4063;48.140;10.250;2023-11-21T13:22:45;2.07;;;1.43;;
8040;SDS011;4063;48.140;10.250;2023-11-21T13:25:12;6.03;;;3.03;;
8040;SDS011;4063;48.140;10.250;2023-11-21T13:27:39;2.13;;;1.93;;
8040;SDS011;4063;48.140;10.250;2023-11-21T13:30:08;7.47;;;3.23;;
8040;SDS011;4063;48.140;10.250;2023-11-21T13:32:34;2.30;;;1.50;;
8040;SDS011;4063;48.140;10.250;2023-11-21T13:35:00;2.47;;;1.70;;
8040;SDS011;4063;48.140;10.250;2023-11-21T13:37:26;2.83;;;1.30;;
8040;SDS011;4063;48.140;10.250;2023-11-21T13:39:53;1.00;;;1.00;;
8040;SDS011;4063;48.140;10.250;2023-11-21T13:42:20;1.67;;;0.90;;
8040;SDS011;4063;48.140;10.250;2023-11-21T13:44:55;0.90;;;0.90;;
8040;SDS011;4063;48.140;10.250;2023-11-21T13:47:21;1.00;;;0.93;;
8040;SDS011;4063;48.140;10.250;2023-11-21T13:49:50;1.10;;;0.90;;
8040;SDS011;4063;48.140;10.250;2023-11-21T13:52:16;2.13;;;1.13;;
8040;SDS011;4063;48.140;10.250;2023-11-21T13:54:45;2.40;;;1.00;;
8040;SDS011;4063;48.140;10.250;2023-11-21T13:57:12;1.43;;;1.23;;
8040;SDS011;4063;48.140;10.250;2023-11-21T13:59:38;1.43;;;1.27;;
8040;SDS011;4063;48.140;10.250;2023-11-21T14:02:04;0.80;;;0.80;;
8040;SDS011;4063;48.140;10.250;2023-11-21T14:04:43;1.63;;;1.20;;
8040;SDS011;4063;48.140;10.250;2023-11-21T14:07:25;1.10;;;1.00;;
8040;SDS011;4063;48.140;10.250;2023-11-21T14:10:01;1.63;;;0.80;;
8040;SDS011;4063;48.140;10.250;2023-11-21T14:12:27;1.30;;;0.90;;
8040;SDS011;4063;48.140;10.250;2023-11-21T14:14:53;0.90;;;0.80;;
8040;SDS011;4063;48.140;10.250;2023-11-21T14:17:20;6.70;;;5.03;;
8040;SDS011;4063;48.140;10.250;2023-11-21T14:19:47;2.10;;;1.50;;
8040;SDS011;4063;48.140;10.250;2023-11-21T14:22:14;1.80;;;1.37;;
8040;SDS011;4063;48.140;10.250;2023-11-21T14:24:42;1.63;;;1.40;;
8040;SDS011;4063;48.140;10.250;2023-11-21T14:27:11;1.40;;;1.30;;
8040;SDS011;4063;48.140;10.250;2023-11-21T14:29:37;4.03;;;2.73;;
8040;SDS011;4063;48.140;10.250;2023-11-21T14:32:04;5.37;;;4.03;;
8040;SDS011;4063;48.140;10.250;2023-11-21T14:34:30;2.23;;;1.77;;
8040;SDS011;4063;48.140;10.250;2023-11-21T14:36:56;2.43;;;1.93;;
8040;SDS011;4063;48.140;10.250;2023-11-21T14:39:23;2.30;;;1.80;;
8040;SDS011;4063;48.140;10.250;2023-11-21T14:41:51;1.60;;;1.27;;
8040;SDS011;4063;48.140;10.250;2023-11-21T14:44:18;1.73;;;1.50;;
8040;SDS011;4063;48.140;10.250;2023-11-21T14:46:44;3.43;;;1.53;;
8040;SDS011;4063;48.140;10.250;2023-11-21T14:49:16;1.93;;;1.70;;
8040;SDS011;4063;48.140;10.250;2023-11-21T14:51:46;2.80;;;1.90;;
8040;SDS011;4063;48.140;10.250;2023-11-21T14:54:31;2.80;;;2.17;;
8040;SDS011;4063;48.140;10.250;2023-11-21T14:57:11;6.47;;;3.87;;
8040;SDS011;4063;48.140;10.250;2023-11-21T14:59:43;4.30;;;3.67;;
8040;SDS011;4063;48.140;10.250;2023-11-21T15:02:15;4.07;;;3.13;;
8040;SDS011;4063;48.140;10.250;2023-11-21T15:04:45;3.90;;;2.43;;
8040;SDS011;4063;48.140;10.250;2023-11-21T15:07:12;2.63;;;2.43;;
8040;SDS011;4063;48.140;10.250;2023-11-21T15:09:38;3.40;;;2.30;;
8040;SDS011;4063;48.140;10.250;2023-11-21T15:12:04;3.50;;;3.20;;
8040;SDS011;4063;48.140;10.250;2023-11-21T15:14:49;2.40;;;2.00;;
8040;SDS011;4063;48.140;10.250;2023-11-21T15:17:19;2.97;;;1.90;;
8040;SDS011;4063;48.140;10.250;2023-11-21T15:19:55;2.47;;;1.60;;
8040;SDS011;4063;48.140;10.250;2023-11-21T15:22:21;1.40;;;1.23;;